sensor_id;sensor_type;location;lat;lon;timestamp;temperature;humidity
44517;DHT22;30223;17.182;-96.766;2022-11-20T00:01:34;27.50;47.20
44517;DHT22;30223;17.182;-96.766;2022-11-20T00:04:00;27.50;47.20
44517;DHT22;30223;17.182;-96.766;2022-11-20T00:06:28;27.50;47.50
44517;DHT22;30223;17.182;-96.766;2022-11-20T00:08:57;27.50;47.40
44517;DHT22;30223;17.182;-96.766;2022-11-20T00:11:26;27.40;47.50
44517;DHT22;30223;17.182;-96.766;2022-11-20T00:13:55;27.50;48.40
44517;DHT22;30223;17.182;-96.766;2022-11-20T00:16:24;27.50;47.60
44517;DHT22;30223;17.182;-96.766;2022-11-20T00:18:52;27.40;47.60
44517;DHT22;30223;17.182;-96.766;2022-11-20T00:21:21;27.50;47.60
44517;DHT22;30223;17.182;-96.766;2022-11-20T00:23:48;27.40;47.30
44517;DHT22;30223;17.182;-96.766;2022-11-20T00:26:17;27.40;48.00
44517;DHT22;30223;17.182;-96.766;2022-11-20T00:28:48;27.40;47.30
44517;DHT22;30223;17.182;-96.766;2022-11-20T00:31:16;27.30;47.40
44517;DHT22;30223;17.182;-96.766;2022-11-20T00:33:43;27.30;47.70
44517;DHT22;30223;17.182;-96.766;2022-11-20T00:36:15;27.20;47.70
44517;DHT22;30223;17.182;-96.766;2022-11-20T00:38:43;27.20;47.90
44517;DHT22;30223;17.182;-96.766;2022-11-20T00:41:12;27.10;47.90
44517;DHT22;30223;17.182;-96.766;2022-11-20T00:57:17;27.00;47.70
44517;DHT22;30223;17.182;-96.766;2022-11-20T00:59:44;26.70;48.80
44517;DHT22;30223;17.182;-96.766;2022-11-20T01:02:10;26.70;49.00
44517;DHT22;30223;17.182;-96.766;2022-11-20T01:04:37;26.60;49.00
44517;DHT22;30223;17.182;-96.766;2022-11-20T01:07:04;26.50;49.20
44517;DHT22;30223;17.182;-96.766;2022-11-20T01:09:30;26.50;49.30
44517;DHT22;30223;17.182;-96.766;2022-11-20T01:11:57;26.50;49.50
44517;DHT22;30223;17.182;-96.766;2022-11-20T01:14:25;26.50;49.80
44517;DHT22;30223;17.182;-96.766;2022-11-20T01:16:52;26.40;49.90
44517;DHT22;30223;17.182;-96.766;2022-11-20T01:19:23;26.40;50.10
44517;DHT22;30223;17.182;-96.766;2022-11-20T01:21:52;26.40;50.30
44517;DHT22;30223;17.182;-96.766;2022-11-20T01:24:21;26.30;50.20
44517;DHT22;30223;17.182;-96.766;2022-11-20T01:26:49;26.30;50.30
44517;DHT22;30223;17.182;-96.766;2022-11-20T01:29:21;26.30;50.40
44517;DHT22;30223;17.182;-96.766;2022-11-20T01:31:48;26.20;50.50
44517;DHT22;30223;17.182;-96.766;2022-11-20T01:34:17;26.20;50.70
44517;DHT22;30223;17.182;-96.766;2022-11-20T01:36:44;26.20;50.80
44517;DHT22;30223;17.182;-96.766;2022-11-20T01:39:16;26.20;51.00
44517;DHT22;30223;17.182;-96.766;2022-11-20T01:41:44;26.20;51.20
44517;DHT22;30223;17.182;-96.766;2022-11-20T01:44:52;26.10;51.30
44517;DHT22;30223;17.182;-96.766;2022-11-20T01:47:40;26.10;51.40
44517;DHT22;30223;17.182;-96.766;2022-11-20T01:50:28;26.10;51.50
44517;DHT22;30223;17.182;-96.766;2022-11-20T01:53:00;26.00;51.70
44517;DHT22;30223;17.182;-96.766;2022-11-20T01:55:32;26.00;51.80
44517;DHT22;30223;17.182;-96.766;2022-11-20T01:58:00;26.00;52.00
44517;DHT22;30223;17.182;-96.766;2022-11-20T02:00:27;26.00;52.10
44517;DHT22;30223;17.182;-96.766;2022-11-20T02:03:00;26.00;52.30
44517;DHT22;30223;17.182;-96.766;2022-11-20T02:08:10;25.90;52.40
44517;DHT22;30223;17.182;-96.766;2022-11-20T02:10:37;26.00;52.70
44517;DHT22;30223;17.182;-96.766;2022-11-20T02:13:03;25.90;52.70
44517;DHT22;30223;17.182;-96.766;2022-11-20T02:15:49;25.90;52.70
44517;DHT22;30223;17.182;-96.766;2022-11-20T02:18:18;25.90;52.70
44517;DHT22;30223;17.182;-96.766;2022-11-20T02:20:47;25.80;52.80
44517;DHT22;30223;17.182;-96.766;2022-11-20T02:25:56;25.80;53.00
44517;DHT22;30223;17.182;-96.766;2022-11-20T02:28:23;25.80;53.10
44517;DHT22;30223;17.182;-96.766;2022-11-20T02:30:50;25.80;53.20
44517;DHT22;30223;17.182;-96.766;2022-11-20T02:33:17;25.80;53.30
44517;DHT22;30223;17.182;-96.766;2022-11-20T02:35:45;25.70;53.30
44517;DHT22;30223;17.182;-96.766;2022-11-20T02:38:13;25.70;53.30
44517;DHT22;30223;17.182;-96.766;2022-11-20T02:40:41;25.70;53.40
44517;DHT22;30223;17.182;-96.766;2022-11-20T02:43:08;25.70;53.40
44517;DHT22;30223;17.182;-96.766;2022-11-20T02:45:36;25.70;53.40
44517;DHT22;30223;17.182;-96.766;2022-11-20T02:48:03;25.70;53.60
44517;DHT22;30223;17.182;-96.766;2022-11-20T02:50:30;25.70;53.70
44517;DHT22;30223;17.182;-96.766;2022-11-20T02:52:56;25.70;53.70
44517;DHT22;30223;17.182;-96.766;2022-11-20T02:55:23;25.60;53.70
44517;DHT22;30223;17.182;-96.766;2022-11-20T02:57:49;25.60;53.80
44517;DHT22;30223;17.182;-96.766;2022-11-20T03:00:16;25.60;53.80
44517;DHT22;30223;17.182;-96.766;2022-11-20T03:02:43;25.60;53.90
44517;DHT22;30223;17.182;-96.766;2022-11-20T03:05:09;25.50;53.80
44517;DHT22;30223;17.182;-96.766;2022-11-20T03:07:36;25.50;53.90
44517;DHT22;30223;17.182;-96.766;2022-11-20T03:10:03;25.50;53.90
44517;DHT22;30223;17.182;-96.766;2022-11-20T03:12:30;25.50;54.00
44517;DHT22;30223;17.182;-96.766;2022-11-20T03:14:57;25.50;54.00
44517;DHT22;30223;17.182;-96.766;2022-11-20T03:17:23;25.50;54.10
44517;DHT22;30223;17.182;-96.766;2022-11-20T03:19:50;25.50;54.10
44517;DHT22;30223;17.182;-96.766;2022-11-20T03:22:16;25.50;54.20
44517;DHT22;30223;17.182;-96.766;2022-11-20T03:24:43;25.50;54.20
44517;DHT22;30223;17.182;-96.766;2022-11-20T03:27:09;25.50;54.30
44517;DHT22;30223;17.182;-96.766;2022-11-20T03:29:36;25.50;54.90
44517;DHT22;30223;17.182;-96.766;2022-11-20T03:32:03;25.40;54.20
44517;DHT22;30223;17.182;-96.766;2022-11-20T03:34:29;25.40;54.30
44517;DHT22;30223;17.182;-96.766;2022-11-20T03:36:56;25.40;54.30
44517;DHT22;30223;17.182;-96.766;2022-11-20T03:39:22;25.40;54.30
44517;DHT22;30223;17.182;-96.766;2022-11-20T03:41:49;25.30;54.30
44517;DHT22;30223;17.182;-96.766;2022-11-20T03:44:15;25.30;54.30
44517;DHT22;30223;17.182;-96.766;2022-11-20T03:46:42;25.30;54.40
44517;DHT22;30223;17.182;-96.766;2022-11-20T03:49:09;25.30;54.30
44517;DHT22;30223;17.182;-96.766;2022-11-20T03:51:36;25.30;54.50
44517;DHT22;30223;17.182;-96.766;2022-11-20T03:54:05;25.30;54.40
44517;DHT22;30223;17.182;-96.766;2022-11-20T03:56:35;25.30;54.40
44517;DHT22;30223;17.182;-96.766;2022-11-20T03:59:02;25.30;54.50
44517;DHT22;30223;17.182;-96.766;2022-11-20T04:01:34;25.30;54.50
44517;DHT22;30223;17.182;-96.766;2022-11-20T04:04:01;25.30;54.40
44517;DHT22;30223;17.182;-96.766;2022-11-20T04:06:33;25.30;54.50
44517;DHT22;30223;17.182;-96.766;2022-11-20T04:09:00;25.20;54.40
44517;DHT22;30223;17.182;-96.766;2022-11-20T04:11:31;25.20;54.50
44517;DHT22;30223;17.182;-96.766;2022-11-20T04:14:00;25.20;54.50
44517;DHT22;30223;17.182;-96.766;2022-11-20T04:16:29;25.20;54.60
44517;DHT22;30223;17.182;-96.766;2022-11-20T04:18:58;25.20;54.60
44517;DHT22;30223;17.182;-96.766;2022-11-20T04:21:26;25.20;54.60
44517;DHT22;30223;17.182;-96.766;2022-11-20T04:23:53;25.20;54.60
44517;DHT22;30223;17.182;-96.766;2022-11-20T04:26:20;25.10;54.60
44517;DHT22;30223;17.182;-96.766;2022-11-20T04:28:47;25.10;54.50
44517;DHT22;30223;17.182;-96.766;2022-11-20T04:31:19;25.10;54.60
44517;DHT22;30223;17.182;-96.766;2022-11-20T04:33:46;25.10;54.60
44517;DHT22;30223;17.182;-96.766;2022-11-20T04:38:41;25.10;54.70
44517;DHT22;30223;17.182;-96.766;2022-11-20T04:41:11;25.10;54.70
44517;DHT22;30223;17.182;-96.766;2022-11-20T04:43:38;25.10;54.70
44517;DHT22;30223;17.182;-96.766;2022-11-20T04:46:05;25.10;54.70
44517;DHT22;30223;17.182;-96.766;2022-11-20T04:48:31;25.10;54.70
44517;DHT22;30223;17.182;-96.766;2022-11-20T04:51:03;25.00;54.60
44517;DHT22;30223;17.182;-96.766;2022-11-20T04:53:30;25.00;54.80
44517;DHT22;30223;17.182;-96.766;2022-11-20T04:56:00;25.00;54.60
44517;DHT22;30223;17.182;-96.766;2022-11-20T04:58:28;25.00;54.60
44517;DHT22;30223;17.182;-96.766;2022-11-20T05:01:07;25.00;54.60
44517;DHT22;30223;17.182;-96.766;2022-11-20T05:03:35;25.00;54.60
44517;DHT22;30223;17.182;-96.766;2022-11-20T05:06:03;25.00;54.70
44517;DHT22;30223;17.182;-96.766;2022-11-20T05:08:31;25.00;54.70
44517;DHT22;30223;17.182;-96.766;2022-11-20T05:11:09;25.00;54.70
44517;DHT22;30223;17.182;-96.766;2022-11-20T05:13:36;25.00;54.70
44517;DHT22;30223;17.182;-96.766;2022-11-20T05:16:11;25.00;54.70
44517;DHT22;30223;17.182;-96.766;2022-11-20T05:18:38;24.90;54.70
44517;DHT22;30223;17.182;-96.766;2022-11-20T05:21:06;24.90;54.70
44517;DHT22;30223;17.182;-96.766;2022-11-20T05:23:33;24.90;54.70
44517;DHT22;30223;17.182;-96.766;2022-11-20T05:26:00;24.90;54.70
44517;DHT22;30223;17.182;-96.766;2022-11-20T05:28:29;24.90;55.40
44517;DHT22;30223;17.182;-96.766;2022-11-20T05:30:56;24.90;54.70
44517;DHT22;30223;17.182;-96.766;2022-11-20T05:33:22;24.80;54.70
44517;DHT22;30223;17.182;-96.766;2022-11-20T05:35:49;24.80;54.70
44517;DHT22;30223;17.182;-96.766;2022-11-20T05:38:16;24.80;54.70
44517;DHT22;30223;17.182;-96.766;2022-11-20T05:40:42;24.80;54.70
44517;DHT22;30223;17.182;-96.766;2022-11-20T05:43:09;24.80;54.70
44517;DHT22;30223;17.182;-96.766;2022-11-20T05:45:36;24.80;54.70
44517;DHT22;30223;17.182;-96.766;2022-11-20T05:48:02;24.80;54.70
44517;DHT22;30223;17.182;-96.766;2022-11-20T05:50:29;24.80;54.80
44517;DHT22;30223;17.182;-96.766;2022-11-20T05:52:58;24.80;54.70
44517;DHT22;30223;17.182;-96.766;2022-11-20T05:55:26;24.80;54.80
44517;DHT22;30223;17.182;-96.766;2022-11-20T05:57:54;24.80;54.90
44517;DHT22;30223;17.182;-96.766;2022-11-20T06:00:21;24.80;54.80
44517;DHT22;30223;17.182;-96.766;2022-11-20T06:02:47;24.70;54.80
44517;DHT22;30223;17.182;-96.766;2022-11-20T06:05:14;24.70;54.80
44517;DHT22;30223;17.182;-96.766;2022-11-20T06:07:41;24.80;54.80
44517;DHT22;30223;17.182;-96.766;2022-11-20T06:10:08;24.70;54.80
44517;DHT22;30223;17.182;-96.766;2022-11-20T06:12:34;24.70;54.90
44517;DHT22;30223;17.182;-96.766;2022-11-20T06:15:01;24.70;54.80
44517;DHT22;30223;17.182;-96.766;2022-11-20T06:17:28;24.70;54.90
44517;DHT22;30223;17.182;-96.766;2022-11-20T06:19:54;24.70;54.80
44517;DHT22;30223;17.182;-96.766;2022-11-20T06:22:21;24.70;54.90
44517;DHT22;30223;17.182;-96.766;2022-11-20T06:24:47;24.60;54.90
44517;DHT22;30223;17.182;-96.766;2022-11-20T06:27:14;24.60;54.90
44517;DHT22;30223;17.182;-96.766;2022-11-20T06:29:41;24.60;54.90
44517;DHT22;30223;17.182;-96.766;2022-11-20T06:32:08;24.60;54.90
44517;DHT22;30223;17.182;-96.766;2022-11-20T06:34:35;24.60;55.00
44517;DHT22;30223;17.182;-96.766;2022-11-20T06:37:01;24.60;54.90
44517;DHT22;30223;17.182;-96.766;2022-11-20T06:39:28;24.60;55.00
44517;DHT22;30223;17.182;-96.766;2022-11-20T06:41:54;24.60;55.00
44517;DHT22;30223;17.182;-96.766;2022-11-20T06:44:21;24.60;55.00
44517;DHT22;30223;17.182;-96.766;2022-11-20T06:46:47;24.60;55.00
44517;DHT22;30223;17.182;-96.766;2022-11-20T06:49:14;24.60;55.00
44517;DHT22;30223;17.182;-96.766;2022-11-20T06:51:40;24.50;55.00
44517;DHT22;30223;17.182;-96.766;2022-11-20T06:54:07;24.60;55.10
44517;DHT22;30223;17.182;-96.766;2022-11-20T06:56:34;24.50;55.00
44517;DHT22;30223;17.182;-96.766;2022-11-20T06:59:04;24.50;55.00
44517;DHT22;30223;17.182;-96.766;2022-11-20T07:01:32;24.50;55.00
44517;DHT22;30223;17.182;-96.766;2022-11-20T07:03:58;24.50;55.00
44517;DHT22;30223;17.182;-96.766;2022-11-20T07:06:25;24.40;55.00
44517;DHT22;30223;17.182;-96.766;2022-11-20T07:08:51;24.50;55.10
44517;DHT22;30223;17.182;-96.766;2022-11-20T07:11:19;24.40;55.00
44517;DHT22;30223;17.182;-96.766;2022-11-20T07:13:46;24.40;55.00
44517;DHT22;30223;17.182;-96.766;2022-11-20T07:16:12;24.40;55.00
44517;DHT22;30223;17.182;-96.766;2022-11-20T07:18:39;24.40;55.00
44517;DHT22;30223;17.182;-96.766;2022-11-20T07:21:08;24.40;55.10
44517;DHT22;30223;17.182;-96.766;2022-11-20T07:23:35;24.40;55.10
44517;DHT22;30223;17.182;-96.766;2022-11-20T07:26:06;24.30;55.00
44517;DHT22;30223;17.182;-96.766;2022-11-20T07:28:32;24.30;55.00
44517;DHT22;30223;17.182;-96.766;2022-11-20T07:30:59;24.30;55.00
44517;DHT22;30223;17.182;-96.766;2022-11-20T07:33:26;24.30;55.00
44517;DHT22;30223;17.182;-96.766;2022-11-20T07:35:52;24.30;55.00
44517;DHT22;30223;17.182;-96.766;2022-11-20T07:38:19;24.30;55.00
44517;DHT22;30223;17.182;-96.766;2022-11-20T07:40:46;24.30;55.00
44517;DHT22;30223;17.182;-96.766;2022-11-20T07:43:12;24.20;55.00
44517;DHT22;30223;17.182;-96.766;2022-11-20T07:45:39;24.30;55.10
44517;DHT22;30223;17.182;-96.766;2022-11-20T07:48:06;24.20;55.10
44517;DHT22;30223;17.182;-96.766;2022-11-20T07:50:32;24.20;55.10
44517;DHT22;30223;17.182;-96.766;2022-11-20T07:53:05;24.20;55.10
44517;DHT22;30223;17.182;-96.766;2022-11-20T07:55:32;24.20;55.00
44517;DHT22;30223;17.182;-96.766;2022-11-20T07:57:59;24.20;55.10
44517;DHT22;30223;17.182;-96.766;2022-11-20T08:00:26;24.20;55.10
44517;DHT22;30223;17.182;-96.766;2022-11-20T08:02:53;24.10;55.00
44517;DHT22;30223;17.182;-96.766;2022-11-20T08:05:20;24.10;55.00
44517;DHT22;30223;17.182;-96.766;2022-11-20T08:07:47;24.10;55.00
44517;DHT22;30223;17.182;-96.766;2022-11-20T08:10:15;24.10;55.00
44517;DHT22;30223;17.182;-96.766;2022-11-20T08:12:49;24.10;55.00
44517;DHT22;30223;17.182;-96.766;2022-11-20T08:15:34;24.10;55.00
44517;DHT22;30223;17.182;-96.766;2022-11-20T08:20:28;24.10;55.10
44517;DHT22;30223;17.182;-96.766;2022-11-20T08:23:01;24.10;55.10
44517;DHT22;30223;17.182;-96.766;2022-11-20T08:25:29;24.00;55.00
44517;DHT22;30223;17.182;-96.766;2022-11-20T08:28:00;24.00;55.00
44517;DHT22;30223;17.182;-96.766;2022-11-20T08:30:27;24.00;55.00
44517;DHT22;30223;17.182;-96.766;2022-11-20T08:32:54;24.00;55.10
44517;DHT22;30223;17.182;-96.766;2022-11-20T08:35:22;24.00;55.10
44517;DHT22;30223;17.182;-96.766;2022-11-20T08:37:49;23.90;55.00
44517;DHT22;30223;17.182;-96.766;2022-11-20T08:40:16;23.90;55.00
44517;DHT22;30223;17.182;-96.766;2022-11-20T08:42:50;23.90;55.00
44517;DHT22;30223;17.182;-96.766;2022-11-20T08:45:18;23.90;55.00
44517;DHT22;30223;17.182;-96.766;2022-11-20T08:47:45;23.90;55.00
44517;DHT22;30223;17.182;-96.766;2022-11-20T08:50:14;23.90;55.00
44517;DHT22;30223;17.182;-96.766;2022-11-20T08:52:40;23.80;55.00
44517;DHT22;30223;17.182;-96.766;2022-11-20T08:55:08;23.80;55.00
44517;DHT22;30223;17.182;-96.766;2022-11-20T08:57:35;23.90;55.10
44517;DHT22;30223;17.182;-96.766;2022-11-20T09:00:05;23.80;55.00
44517;DHT22;30223;17.182;-96.766;2022-11-20T09:02:32;23.80;55.00
44517;DHT22;30223;17.182;-96.766;2022-11-20T09:04:59;23.80;55.10
44517;DHT22;30223;17.182;-96.766;2022-11-20T09:07:25;23.80;55.00
44517;DHT22;30223;17.182;-96.766;2022-11-20T09:09:52;23.80;55.00
44517;DHT22;30223;17.182;-96.766;2022-11-20T09:12:18;23.80;55.10
44517;DHT22;30223;17.182;-96.766;2022-11-20T09:14:45;23.70;55.00
44517;DHT22;30223;17.182;-96.766;2022-11-20T09:17:11;23.70;54.90
44517;DHT22;30223;17.182;-96.766;2022-11-20T09:19:40;23.70;54.90
44517;DHT22;30223;17.182;-96.766;2022-11-20T09:22:07;23.70;54.80
44517;DHT22;30223;17.182;-96.766;2022-11-20T09:24:34;23.70;54.90
44517;DHT22;30223;17.182;-96.766;2022-11-20T09:27:04;23.70;54.90
44517;DHT22;30223;17.182;-96.766;2022-11-20T09:29:31;23.60;54.90
44517;DHT22;30223;17.182;-96.766;2022-11-20T09:31:57;23.60;54.90
44517;DHT22;30223;17.182;-96.766;2022-11-20T09:34:24;23.60;54.90
44517;DHT22;30223;17.182;-96.766;2022-11-20T09:36:51;23.60;54.90
44517;DHT22;30223;17.182;-96.766;2022-11-20T09:39:17;23.60;54.90
44517;DHT22;30223;17.182;-96.766;2022-11-20T09:42:01;23.60;54.90
44517;DHT22;30223;17.182;-96.766;2022-11-20T09:47:31;23.60;54.80
44517;DHT22;30223;17.182;-96.766;2022-11-20T09:55:54;23.50;55.40
44517;DHT22;30223;17.182;-96.766;2022-11-20T10:01:00;23.50;54.80
44517;DHT22;30223;17.182;-96.766;2022-11-20T10:06:34;23.50;54.80
44517;DHT22;30223;17.182;-96.766;2022-11-20T10:15:03;23.40;54.80
44517;DHT22;30223;17.182;-96.766;2022-11-20T10:23:24;23.40;54.70
44517;DHT22;30223;17.182;-96.766;2022-11-20T10:26:21;23.30;54.70
44517;DHT22;30223;17.182;-96.766;2022-11-20T10:31:37;23.30;54.70
44517;DHT22;30223;17.182;-96.766;2022-11-20T10:34:59;23.30;54.80
44517;DHT22;30223;17.182;-96.766;2022-11-20T10:37:28;23.30;54.60
44517;DHT22;30223;17.182;-96.766;2022-11-20T10:40:49;23.30;54.80
44517;DHT22;30223;17.182;-96.766;2022-11-20T10:42:57;23.30;54.80
44517;DHT22;30223;17.182;-96.766;2022-11-20T10:48:39;23.20;54.80
44517;DHT22;30223;17.182;-96.766;2022-11-20T10:51:21;23.20;54.70
44517;DHT22;30223;17.182;-96.766;2022-11-20T10:56:47;23.20;54.70
44517;DHT22;30223;17.182;-96.766;2022-11-20T11:00:18;23.20;54.80
44517;DHT22;30223;17.182;-96.766;2022-11-20T11:02:29;23.10;54.60
44517;DHT22;30223;17.182;-96.766;2022-11-20T11:05:09;23.10;54.70
44517;DHT22;30223;17.182;-96.766;2022-11-20T11:07:39;23.10;54.70
44517;DHT22;30223;17.182;-96.766;2022-11-20T11:10:16;23.10;54.70
44517;DHT22;30223;17.182;-96.766;2022-11-20T11:12:45;23.10;54.80
44517;DHT22;30223;17.182;-96.766;2022-11-20T11:15:27;23.00;54.70
44517;DHT22;30223;17.182;-96.766;2022-11-20T11:17:54;23.00;54.70
44517;DHT22;30223;17.182;-96.766;2022-11-20T11:20:26;23.00;54.70
44517;DHT22;30223;17.182;-96.766;2022-11-20T11:23:01;23.00;54.70
44517;DHT22;30223;17.182;-96.766;2022-11-20T11:25:33;23.00;54.70
44517;DHT22;30223;17.182;-96.766;2022-11-20T11:28:19;23.00;54.70
44517;DHT22;30223;17.182;-96.766;2022-11-20T11:30:46;23.00;54.70
44517;DHT22;30223;17.182;-96.766;2022-11-20T11:35:52;22.90;54.70
44517;DHT22;30223;17.182;-96.766;2022-11-20T11:38:39;22.90;54.70
44517;DHT22;30223;17.182;-96.766;2022-11-20T11:41:09;22.90;55.20
44517;DHT22;30223;17.182;-96.766;2022-11-20T11:43:39;22.90;54.70
44517;DHT22;30223;17.182;-96.766;2022-11-20T11:49:15;22.80;54.70
44517;DHT22;30223;17.182;-96.766;2022-11-20T11:55:03;22.80;54.70
44517;DHT22;30223;17.182;-96.766;2022-11-20T12:02:54;22.70;54.70
44517;DHT22;30223;17.182;-96.766;2022-11-20T12:05:47;22.70;54.70
44517;DHT22;30223;17.182;-96.766;2022-11-20T12:08:23;22.70;54.70
44517;DHT22;30223;17.182;-96.766;2022-11-20T12:11:13;22.70;54.80
44517;DHT22;30223;17.182;-96.766;2022-11-20T12:16:15;22.70;54.80
44517;DHT22;30223;17.182;-96.766;2022-11-20T12:18:44;22.60;54.80
44517;DHT22;30223;17.182;-96.766;2022-11-20T12:24:04;22.60;54.80
44517;DHT22;30223;17.182;-96.766;2022-11-20T12:26:45;22.60;54.80
44517;DHT22;30223;17.182;-96.766;2022-11-20T12:38:26;22.60;54.90
44517;DHT22;30223;17.182;-96.766;2022-11-20T12:40:42;22.50;54.90
44517;DHT22;30223;17.182;-96.766;2022-11-20T12:43:27;22.50;54.90
44517;DHT22;30223;17.182;-96.766;2022-11-20T13:08:18;22.40;55.00
44517;DHT22;30223;17.182;-96.766;2022-11-20T13:18:51;22.40;55.10
44517;DHT22;30223;17.182;-96.766;2022-11-20T13:21:35;22.40;55.10
44517;DHT22;30223;17.182;-96.766;2022-11-20T13:29:58;22.30;55.10
44517;DHT22;30223;17.182;-96.766;2022-11-20T13:32:26;22.30;55.10
44517;DHT22;30223;17.182;-96.766;2022-11-20T13:35:03;22.30;55.10
44517;DHT22;30223;17.182;-96.766;2022-11-20T13:51:12;22.30;54.70
44517;DHT22;30223;17.182;-96.766;2022-11-20T14:02:21;22.30;55.10
44517;DHT22;30223;17.182;-96.766;2022-11-20T14:04:52;22.30;55.10
44517;DHT22;30223;17.182;-96.766;2022-11-20T14:07:21;22.20;55.20
44517;DHT22;30223;17.182;-96.766;2022-11-20T14:09:56;22.30;55.20
44517;DHT22;30223;17.182;-96.766;2022-11-20T14:12:28;22.20;55.20
44517;DHT22;30223;17.182;-96.766;2022-11-20T14:14:55;22.20;55.20
44517;DHT22;30223;17.182;-96.766;2022-11-20T14:19:58;22.20;55.20
44517;DHT22;30223;17.182;-96.766;2022-11-20T14:22:26;22.20;55.20
44517;DHT22;30223;17.182;-96.766;2022-11-20T14:25:18;22.20;55.30
44517;DHT22;30223;17.182;-96.766;2022-11-20T14:28:00;22.20;55.20
44517;DHT22;30223;17.182;-96.766;2022-11-20T14:30:57;22.20;55.20
44517;DHT22;30223;17.182;-96.766;2022-11-20T14:33:26;22.20;55.30
44517;DHT22;30223;17.182;-96.766;2022-11-20T14:35:55;22.20;55.30
44517;DHT22;30223;17.182;-96.766;2022-11-20T14:38:25;22.20;55.30
44517;DHT22;30223;17.182;-96.766;2022-11-20T14:40:52;22.20;55.30
44517;DHT22;30223;17.182;-96.766;2022-11-20T14:43:27;22.20;55.30
44517;DHT22;30223;17.182;-96.766;2022-11-20T14:46:02;22.20;55.30
44517;DHT22;30223;17.182;-96.766;2022-11-20T14:51:04;22.20;55.30
44517;DHT22;30223;17.182;-96.766;2022-11-20T14:53:30;22.20;55.40
44517;DHT22;30223;17.182;-96.766;2022-11-20T14:56:01;22.20;55.40
44517;DHT22;30223;17.182;-96.766;2022-11-20T14:58:32;22.20;55.40
44517;DHT22;30223;17.182;-96.766;2022-11-20T15:01:03;22.20;55.40
44517;DHT22;30223;17.182;-96.766;2022-11-20T15:03:36;22.20;55.40
44517;DHT22;30223;17.182;-96.766;2022-11-20T15:06:03;22.20;55.50
44517;DHT22;30223;17.182;-96.766;2022-11-20T15:08:30;22.20;55.50
44517;DHT22;30223;17.182;-96.766;2022-11-20T15:10:57;22.20;55.40
44517;DHT22;30223;17.182;-96.766;2022-11-20T15:13:33;22.20;55.50
44517;DHT22;30223;17.182;-96.766;2022-11-20T15:16:26;22.20;55.40
44517;DHT22;30223;17.182;-96.766;2022-11-20T15:18:53;22.20;55.50
44517;DHT22;30223;17.182;-96.766;2022-11-20T15:21:20;22.20;55.50
44517;DHT22;30223;17.182;-96.766;2022-11-20T15:23:47;22.20;55.50
44517;DHT22;30223;17.182;-96.766;2022-11-20T15:26:24;22.20;55.50
44517;DHT22;30223;17.182;-96.766;2022-11-20T15:28:52;22.20;55.40
44517;DHT22;30223;17.182;-96.766;2022-11-20T15:31:21;22.20;55.50
44517;DHT22;30223;17.182;-96.766;2022-11-20T15:33:47;22.20;55.50
44517;DHT22;30223;17.182;-96.766;2022-11-20T15:36:15;22.20;55.40
44517;DHT22;30223;17.182;-96.766;2022-11-20T15:38:41;22.20;55.40
44517;DHT22;30223;17.182;-96.766;2022-11-20T15:41:08;22.30;55.50
44517;DHT22;30223;17.182;-96.766;2022-11-20T15:43:34;22.30;55.70
44517;DHT22;30223;17.182;-96.766;2022-11-20T15:46:13;22.30;55.60
44517;DHT22;30223;17.182;-96.766;2022-11-20T15:48:45;22.30;55.60
44517;DHT22;30223;17.182;-96.766;2022-11-20T15:51:25;22.40;55.70
44517;DHT22;30223;17.182;-96.766;2022-11-20T15:53:54;22.40;55.80
44517;DHT22;30223;17.182;-96.766;2022-11-20T15:56:20;22.40;55.70
44517;DHT22;30223;17.182;-96.766;2022-11-20T15:58:47;22.40;55.70
44517;DHT22;30223;17.182;-96.766;2022-11-20T16:01:16;22.40;55.70
44517;DHT22;30223;17.182;-96.766;2022-11-20T16:03:43;22.40;55.70
44517;DHT22;30223;17.182;-96.766;2022-11-20T16:06:09;22.40;55.60
44517;DHT22;30223;17.182;-96.766;2022-11-20T16:08:36;22.40;55.70
44517;DHT22;30223;17.182;-96.766;2022-11-20T16:11:03;22.40;55.70
44517;DHT22;30223;17.182;-96.766;2022-11-20T16:13:31;22.50;55.70
44517;DHT22;30223;17.182;-96.766;2022-11-20T16:16:32;22.50;55.70
44517;DHT22;30223;17.182;-96.766;2022-11-20T16:18:59;22.50;55.70
44517;DHT22;30223;17.182;-96.766;2022-11-20T16:21:26;22.50;55.70
44517;DHT22;30223;17.182;-96.766;2022-11-20T16:24:02;22.60;55.80
44517;DHT22;30223;17.182;-96.766;2022-11-20T16:26:29;22.50;55.70
44517;DHT22;30223;17.182;-96.766;2022-11-20T16:28:58;22.60;55.70
44517;DHT22;30223;17.182;-96.766;2022-11-20T16:31:24;22.60;55.80
44517;DHT22;30223;17.182;-96.766;2022-11-20T16:33:52;22.60;55.80
44517;DHT22;30223;17.182;-96.766;2022-11-20T16:36:21;22.70;55.90
44517;DHT22;30223;17.182;-96.766;2022-11-20T16:38:52;22.70;55.90
44517;DHT22;30223;17.182;-96.766;2022-11-20T16:41:19;22.70;55.90
44517;DHT22;30223;17.182;-96.766;2022-11-20T16:43:48;22.70;55.90
44517;DHT22;30223;17.182;-96.766;2022-11-20T16:46:20;22.70;55.90
44517;DHT22;30223;17.182;-96.766;2022-11-20T16:48:54;22.80;55.90
44517;DHT22;30223;17.182;-96.766;2022-11-20T16:51:21;22.80;55.90
44517;DHT22;30223;17.182;-96.766;2022-11-20T16:53:49;22.80;55.90
44517;DHT22;30223;17.182;-96.766;2022-11-20T16:56:18;22.80;55.90
44517;DHT22;30223;17.182;-96.766;2022-11-20T16:58:46;22.80;55.90
44517;DHT22;30223;17.182;-96.766;2022-11-20T17:01:18;22.90;55.90
44517;DHT22;30223;17.182;-96.766;2022-11-20T17:03:57;22.90;55.90
44517;DHT22;30223;17.182;-96.766;2022-11-20T17:06:26;22.90;55.90
44517;DHT22;30223;17.182;-96.766;2022-11-20T17:08:54;22.90;55.90
44517;DHT22;30223;17.182;-96.766;2022-11-20T17:11:21;22.90;55.90
44517;DHT22;30223;17.182;-96.766;2022-11-20T17:13:47;23.00;56.00
44517;DHT22;30223;17.182;-96.766;2022-11-20T17:16:20;23.00;56.00
44517;DHT22;30223;17.182;-96.766;2022-11-20T17:18:47;23.00;55.90
44517;DHT22;30223;17.182;-96.766;2022-11-20T17:21:17;23.00;55.90
44517;DHT22;30223;17.182;-96.766;2022-11-20T17:23:45;23.00;55.80
44517;DHT22;30223;17.182;-96.766;2022-11-20T17:26:15;23.00;55.80
44517;DHT22;30223;17.182;-96.766;2022-11-20T17:28:56;23.00;55.80
44517;DHT22;30223;17.182;-96.766;2022-11-20T17:31:23;23.10;55.80
44517;DHT22;30223;17.182;-96.766;2022-11-20T17:33:50;23.10;55.80
44517;DHT22;30223;17.182;-96.766;2022-11-20T17:36:18;23.10;55.70
44517;DHT22;30223;17.182;-96.766;2022-11-20T17:38:45;23.10;55.80
44517;DHT22;30223;17.182;-96.766;2022-11-20T17:41:17;23.10;55.80
44517;DHT22;30223;17.182;-96.766;2022-11-20T17:43:44;23.10;55.70
44517;DHT22;30223;17.182;-96.766;2022-11-20T17:46:14;23.20;55.60
44517;DHT22;30223;17.182;-96.766;2022-11-20T17:48:42;23.20;55.60
44517;DHT22;30223;17.182;-96.766;2022-11-20T17:51:11;23.20;55.50